Nearby METAR Reports

 

KSJC - San Jose, California, USA
Distance from station: NE 14km
Updated: 01/03/2024 04:53
Light rain, Mostly cloudy
Light rain, Mostly cloudy
 Wind from WNW
Wind: WNW 9 km/h
Temperature: 12°C
Dew Point: 9°C
Humidity: 82%
Barometer: 1015.2 hPa
Summary: Light rain
Clouds: Mostly cloudy
Visibility: 13 km
Cloud details: Mostly cloudy 1463 m
Mostly cloudy 1676 m
Mostly cloudy 2438 m
2024/03/01 12:53 KSJC 011253Z AUTO 30005KT 8SM -RA BKN048 BKN055 BKN080 12/09 A2998 RMK AO2 RAE10B40 SLP151 P0001 T01170094 $
KNUQ - Moffett Nas/Mtn, California, USA
Distance from station: N 14km
Updated: 01/03/2024 05:30
Light rain, Mostly cloudy
Light rain, Mostly cloudy
 Wind from SSW
Wind: SSW 13 km/h
Temperature: 11°C
Dew Point: 8°C
Humidity: 82%
Barometer: 1015.2 hPa
Summary: Light rain
Clouds: Mostly cloudy
Visibility: 14 km
Cloud details: Few Clouds 853 m
Partly cloudy 1158 m
Mostly cloudy 1402 m
2024/03/01 13:30 KNUQ 011330Z AUTO 20007KT 9SM -RA FEW028 SCT038 BKN046 11/08 A2998 RMK AO2
 
KPAO - Palo Alto, California, USA
Distance from station: NNW 23km
Updated: 29/02/2024 20:47
NOT Current
Mostly cloudy
Mostly cloudy
 Wind from S
Wind: S 9 km/h
Temperature: 11°C
Dew Point: 9°C
Humidity: 88%
Barometer: 1016.6 hPa
Clouds: Mostly cloudy
Visibility: 16 km
Cloud details: Mostly cloudy 732 m
2024/03/01 04:47 KPAO 010447Z 19005KT 10SM BKN024 11/09 A3002 RMK LAST
KRHV - San Jose/Reid, California, USA
Distance from station: ENE 19km
Updated: 29/02/2024 21:55
NOT Current
Mostly cloudy
Mostly cloudy
 Wind from E
Wind: E 7 km/h
Temperature: 11°C
Dew Point: 10°C
Humidity: 94%
Barometer: 1016.9 hPa
Clouds: Mostly cloudy
Visibility: 16 km
Cloud details: Mostly cloudy 762 m
2024/03/01 05:55 KRHV 010555Z 09004KT 10SM BKN025 11/10 A3003 RMK LAST
 
KOAK - Oakland, California, USA
Distance from station: NNW 50km
Updated: 01/03/2024 04:53
Mostly cloudy
Mostly cloudy
 Wind from SSW
Wind: SSW 22 km/h
Temperature: 11°C
Dew Point: 9°C
Humidity: 88%
Barometer: 1014.9 hPa
Clouds: Mostly cloudy
Visibility: 16 km
Cloud details: Few Clouds 396 m
Partly cloudy 1524 m
Mostly cloudy 2134 m
2024/03/01 12:53 KOAK 011253Z 21012KT 10SM FEW013 SCT050 BKN070 11/09 A2997 RMK AO2 SLP146 T01110089 $
KSQL - San Carlos Airpo, California, USA
Distance from station: NW 34km
Updated: 01/03/2024 05:35
Overcast
Overcast
 Wind from SSE
Wind: SSE 9 km/h
Temperature: 10°C
Wind Chill: 9°C
Dew Point: 9°C
Humidity: 94%
Barometer: 1015.2 hPa
Clouds: Overcast
Visibility: 13 km
Cloud details: Mostly cloudy 732 m
Overcast 884 m
2024/03/01 13:35 KSQL 011335Z AUTO 16005KT 8SM BKN024 OVC029 10/09 A2998 RMK AO2
 
KSFO - San Francisco, California, USA
Distance from station: NW 49km
Updated: 01/03/2024 04:56
Light rain, Mostly cloudy
Light rain, Mostly cloudy
 Wind from SSE
Wind: SSE 13 km/h
Temperature: 11°C
Dew Point: 8°C
Humidity: 82%
Barometer: 1014.6 hPa
Summary: Light rain
Clouds: Mostly cloudy
Visibility: 16 km
Cloud details: Few Clouds 335 m
Partly cloudy 732 m
Mostly cloudy 914 m
2024/03/01 12:56 KSFO 011256Z 15007KT 10SM -RA FEW011 SCT024 BKN030 11/08 A2996 RMK AO2 RAE02B50 SLP145 P0000 T01060083
KE16 - San Martin, California, USA
Distance from station: ESE 43km
Updated: 01/03/2024 05:35
Overcast
Overcast
 Wind from S
Wind: S 13 km/h
Temperature: 11°C
Dew Point: 10°C
Humidity: 94%
Barometer: 1015.9 hPa
Clouds: Overcast
Visibility: 16 km
Cloud details: Overcast 640 m
2024/03/01 13:35 KE16 011335Z AUTO 17007KT 10SM OVC021 11/10 A3000 RMK AO2 PWINO PNO
 
KWVI - Watsonville, California, USA
Distance from station: SSE 44km
Updated: 01/03/2024 05:21
Light rain, Mist, Overcast
Light rain, Mist, Overcast
 Wind from W
Wind: W 20 km/h
Temperature: 11°C
Dew Point: 9°C
Humidity: 88%
Barometer: 1015.9 hPa
Summary: Light rain, Mist
Clouds: Overcast
Visibility: 10 km
Cloud details: Partly cloudy 244 m
Mostly cloudy 396 m
Overcast 701 m
2024/03/01 13:21 KWVI 011321Z AUTO 26011KT 6SM -RA BR SCT008 BKN013 OVC023 11/09 A3000 RMK AO2 RAB10 P0003 T01060094
KHAF - Half Moon Bay, California, USA
Distance from station: WNW 50km
Updated: 01/03/2024 05:35
Mostly cloudy
Mostly cloudy
 Wind from SSW
Wind: SSW 11 km/h, Gust: 22 km/h
Temperature: 11°C
Dew Point: 11°C
Humidity: 100%
Barometer: 1014.9 hPa
Clouds: Mostly cloudy
Visibility: 11 km
Cloud details: Few Clouds 1524 m
Partly cloudy 1981 m
Mostly cloudy 2286 m
2024/03/01 13:35 KHAF 011335Z AUTO 21006G12KT 7SM FEW050 SCT065 BKN075 11/11 A2997 RMK AO2
 
KHWD - Hayward, California, USA
Distance from station: N 44km
Updated: 01/03/2024 04:54
Overcast
Overcast
 Wind from SSW
Wind: SSW 11 km/h
Temperature: 12°C
Dew Point: 9°C
Humidity: 82%
Barometer: 1014.6 hPa
Clouds: Overcast
Visibility: 16 km
Cloud details: Partly cloudy 1433 m
Overcast 1829 m
2024/03/01 12:54 KHWD 011254Z AUTO 20006KT 10SM SCT047 OVC060 12/09 A2996 RMK AO2 RAE29 SLP156 P0001 T01170089
KLVK - Livermore, California, USA
Distance from station: NNE 51km
Updated: 01/03/2024 05:29
Overcast
Overcast
 Wind from SSW
Wind: SSW 11 km/h
Temperature: 10°C
Wind Chill: 8°C
Dew Point: 8°C
Humidity: 88%
Barometer: 1014.6 hPa
Clouds: Overcast
Visibility: 16 km
Cloud details: Few Clouds 701 m
Mostly cloudy 1036 m
Overcast 1341 m
2024/03/01 13:29 KLVK 011329Z AUTO 20006KT 10SM FEW023 BKN034 OVC044 10/08 A2996 RMK AO2 RAE14 P0000 T01000078